createdAt,value
2023-01-02T00:01:18.701Z,8.12
2023-01-02T00:03:45.442Z,8.09
2023-01-02T00:06:12.424Z,8.07
2023-01-02T00:08:39.141Z,8.03
2023-01-02T00:11:05.903Z,8.00
2023-01-02T00:13:32.649Z,7.98
2023-01-02T00:15:59.416Z,7.95
2023-01-02T00:18:26.079Z,7.94
2023-01-02T00:20:52.814Z,7.92
2023-01-02T00:23:19.552Z,7.90
2023-01-02T00:25:47.735Z,7.89
2023-01-02T00:28:15.500Z,7.88
2023-01-02T00:30:42.194Z,7.86
2023-01-02T00:33:08.974Z,7.85
2023-01-02T00:35:36.987Z,7.83
2023-01-02T00:38:03.706Z,7.81
2023-01-02T00:40:30.431Z,7.76
2023-01-02T00:42:57.163Z,7.75
2023-01-02T00:45:23.787Z,7.73
2023-01-02T00:47:50.497Z,7.71
2023-01-02T00:50:17.299Z,7.70
2023-01-02T00:52:43.925Z,7.69
2023-01-02T00:55:10.643Z,7.69
2023-01-02T00:57:39.517Z,7.68
2023-01-02T01:00:07.042Z,7.67
2023-01-02T01:02:33.802Z,7.66
2023-01-02T01:05:00.592Z,7.65
2023-01-02T01:07:29.204Z,7.65
2023-01-02T01:09:55.856Z,7.66
2023-01-02T01:12:22.569Z,7.66
2023-01-02T01:14:49.255Z,7.67
2023-01-02T01:17:15.971Z,7.66
2023-01-02T01:19:42.691Z,7.66
2023-01-02T01:22:11.816Z,7.66
2023-01-02T01:24:38.521Z,7.66
2023-01-02T01:27:05.104Z,7.65
2023-01-02T01:29:31.800Z,7.65
2023-01-02T01:31:58.559Z,7.63
2023-01-02T01:34:25.271Z,7.62
2023-01-02T01:36:51.960Z,7.62
2023-01-02T01:39:18.653Z,7.61
2023-01-02T01:41:45.956Z,7.60
2023-01-02T01:44:41.226Z,7.58
2023-01-02T01:47:30.768Z,7.60
2023-01-02T01:50:06.201Z,7.61
2023-01-02T01:52:34.106Z,7.62
2023-01-02T01:55:03.913Z,7.63
2023-01-02T01:57:33.619Z,7.60
2023-01-02T02:00:00.995Z,7.61
2023-01-02T02:02:28.161Z,7.61
2023-01-02T02:04:55.673Z,7.60
2023-01-02T02:07:22.413Z,7.60
2023-01-02T02:09:51.012Z,7.59
2023-01-02T02:12:21.700Z,7.56
2023-01-02T02:14:51.093Z,7.53
2023-01-02T02:17:41.498Z,7.51
2023-01-02T02:20:23.592Z,7.48
2023-01-02T02:23:32.555Z,7.44
2023-01-02T02:26:11.076Z,7.41
2023-01-02T02:28:56.359Z,7.37
2023-01-02T02:31:42.493Z,7.34
2023-01-02T02:34:29.960Z,7.30
2023-01-02T02:36:59.805Z,7.27
2023-01-02T02:39:59.085Z,7.23
2023-01-02T02:42:31.716Z,7.20
2023-01-02T02:45:22.608Z,7.18
2023-01-02T02:47:56.211Z,7.15
2023-01-02T02:50:30.859Z,7.13
2023-01-02T02:53:04.464Z,7.09
2023-01-02T02:55:38.658Z,7.07
2023-01-02T02:58:05.683Z,7.04
2023-01-02T03:00:32.375Z,7.00
2023-01-02T03:02:59.213Z,6.96
2023-01-02T03:05:31.979Z,6.93
2023-01-02T03:08:06.277Z,6.89
2023-01-02T03:10:56.202Z,6.85
2023-01-02T03:13:40.578Z,6.81
2023-01-02T03:16:11.418Z,6.79
2023-01-02T03:18:49.992Z,6.77
2023-01-02T03:21:41.760Z,6.75
2023-01-02T03:24:13.651Z,6.73
2023-01-02T03:26:42.533Z,6.71
2023-01-02T03:29:22.025Z,6.69
2023-01-02T03:31:51.319Z,6.66
2023-01-02T03:34:20.746Z,6.65
2023-01-02T03:36:49.987Z,6.63
2023-01-02T03:39:18.472Z,6.62
2023-01-02T03:41:48.110Z,6.63
2023-01-02T03:44:14.815Z,6.64
2023-01-02T03:46:53.664Z,6.65
2023-01-02T03:49:26.574Z,6.66
2023-01-02T03:51:53.873Z,6.66
2023-01-02T03:54:20.534Z,6.66
2023-01-02T03:56:56.193Z,6.65
2023-01-02T03:59:46.399Z,6.65
2023-01-02T04:02:33.822Z,6.65
2023-01-02T04:05:05.113Z,6.65
2023-01-02T04:07:36.764Z,6.67
2023-01-02T04:10:04.281Z,6.66
2023-01-02T04:12:31.587Z,6.69
2023-01-02T04:15:55.422Z,6.74
2023-01-02T04:18:25.836Z,6.75
2023-01-02T04:20:55.254Z,6.76
2023-01-02T04:23:26.790Z,6.75
2023-01-02T04:26:03.603Z,6.74
2023-01-02T04:28:31.271Z,6.75
2023-01-02T04:31:02.972Z,6.74
2023-01-02T04:33:29.928Z,6.73
2023-01-02T04:35:56.635Z,6.72
2023-01-02T04:38:23.310Z,6.71
2023-01-02T04:40:50.039Z,6.70
2023-01-02T04:43:19.043Z,6.68
2023-01-02T04:45:48.939Z,6.67
2023-01-02T04:48:15.919Z,6.64
2023-01-02T04:50:43.286Z,6.61
2023-01-02T04:53:10.915Z,6.58
2023-01-02T04:55:38.270Z,6.53
2023-01-02T04:58:05.142Z,6.50
2023-01-02T05:00:31.953Z,6.47
2023-01-02T05:02:58.657Z,6.44
2023-01-02T05:05:25.376Z,6.41
2023-01-02T05:07:52.068Z,6.37
2023-01-02T05:10:18.789Z,6.36
2023-01-02T05:12:45.552Z,6.33
2023-01-02T05:15:12.174Z,6.31
2023-01-02T05:17:40.759Z,6.28
2023-01-02T05:20:09.379Z,6.24
2023-01-02T05:22:59.364Z,6.20
2023-01-02T05:25:26.532Z,6.17
2023-01-02T05:27:54.458Z,6.15
2023-01-02T05:30:21.590Z,6.12
2023-01-02T05:32:48.372Z,6.10
2023-01-02T05:35:15.165Z,6.08
2023-01-02T05:37:41.880Z,6.07
2023-01-02T05:40:10.903Z,6.06
2023-01-02T05:42:37.559Z,6.05
2023-01-02T05:45:04.943Z,6.03
2023-01-02T05:47:31.627Z,6.00
2023-01-02T05:49:58.313Z,5.97
2023-01-02T05:52:24.948Z,5.94
2023-01-02T05:54:51.671Z,5.90
2023-01-02T05:57:18.373Z,5.85
2023-01-02T05:59:45.083Z,5.82
2023-01-02T06:02:11.882Z,5.79
2023-01-02T06:04:38.718Z,5.77
2023-01-02T06:07:05.396Z,5.75
2023-01-02T06:09:32.072Z,5.73
2023-01-02T06:11:58.780Z,5.75
2023-01-02T06:14:25.638Z,5.76
2023-01-02T06:16:52.249Z,5.77
2023-01-02T06:19:18.904Z,5.78
2023-01-02T06:21:46.191Z,5.79
2023-01-02T06:24:12.872Z,5.79
2023-01-02T06:26:39.588Z,5.78
2023-01-02T06:29:06.311Z,5.77
2023-01-02T06:31:33.701Z,5.75
2023-01-02T06:34:01.416Z,5.74
2023-01-02T06:36:32.586Z,5.72
2023-01-02T06:38:59.329Z,5.71
2023-01-02T06:41:26.119Z,5.70
2023-01-02T06:43:53.796Z,5.69
2023-01-02T06:46:20.950Z,5.69
2023-01-02T06:48:48.276Z,5.71
2023-01-02T06:51:18.199Z,5.73
2023-01-02T06:53:45.282Z,5.76
2023-01-02T06:56:12.607Z,5.78
2023-01-02T06:58:39.745Z,5.79
2023-01-02T07:01:11.724Z,5.85
2023-01-02T07:03:38.607Z,5.90
2023-01-02T07:06:12.965Z,5.94
2023-01-02T07:08:39.903Z,5.99
2023-01-02T07:11:20.167Z,6.02
2023-01-02T07:13:49.422Z,6.08
2023-01-02T07:16:17.056Z,6.13
2023-01-02T07:18:44.008Z,6.21
2023-01-02T07:21:11.242Z,6.28
2023-01-02T07:23:37.930Z,6.36
2023-01-02T07:26:05.472Z,6.43
2023-01-02T07:28:32.552Z,6.52
2023-01-02T07:31:01.514Z,6.61
2023-01-02T07:33:28.658Z,6.68
2023-01-02T07:35:59.324Z,6.76
2023-01-02T07:38:26.245Z,6.84
2023-01-02T07:40:53.015Z,6.91
2023-01-02T07:43:20.040Z,6.97
2023-01-02T07:45:50.367Z,7.02
2023-01-02T07:48:17.826Z,7.08
2023-01-02T07:50:44.518Z,7.14
2023-01-02T07:53:11.245Z,7.21
2023-01-02T07:55:37.951Z,7.27
2023-01-02T07:58:04.661Z,7.34
2023-01-02T08:00:31.334Z,7.41
2023-01-02T08:02:57.999Z,7.48
2023-01-02T08:05:24.676Z,7.54
2023-01-02T08:07:52.285Z,7.59
2023-01-02T08:10:19.008Z,7.64
2023-01-02T08:12:45.698Z,7.70
2023-01-02T08:15:12.371Z,7.77
2023-01-02T08:17:41.222Z,7.82
2023-01-02T08:20:09.002Z,7.87
2023-01-02T08:22:35.858Z,7.93
2023-01-02T08:25:02.550Z,7.99
2023-01-02T08:27:29.316Z,8.05
2023-01-02T08:29:55.959Z,8.11
2023-01-02T08:32:22.663Z,8.16
2023-01-02T08:34:49.425Z,8.22
2023-01-02T08:37:16.065Z,8.27
2023-01-02T08:39:42.756Z,8.32
2023-01-02T08:42:09.542Z,8.36
2023-01-02T08:44:38.021Z,8.40
2023-01-02T08:47:05.410Z,8.44
2023-01-02T08:49:32.249Z,8.48
2023-01-02T08:51:58.887Z,8.51
2023-01-02T08:54:25.646Z,8.54
2023-01-02T08:56:52.334Z,8.57
2023-01-02T08:59:19.334Z,8.61
2023-01-02T09:01:46.342Z,8.64
2023-01-02T09:04:13.643Z,8.69
2023-01-02T09:06:41.330Z,8.75
2023-01-02T09:09:12.039Z,8.80
2023-01-02T09:11:44.610Z,8.83
2023-01-02T09:14:11.344Z,8.87
2023-01-02T09:16:37.959Z,8.90
2023-01-02T09:19:04.677Z,8.93
2023-01-02T09:21:31.348Z,8.96
2023-01-02T09:23:58.080Z,8.96
2023-01-02T09:26:24.727Z,9.01
2023-01-02T09:28:51.429Z,9.03
2023-01-02T09:31:18.593Z,9.05
2023-01-02T09:33:45.840Z,9.08
2023-01-02T09:36:13.933Z,9.11
2023-01-02T09:38:40.759Z,9.14
2023-01-02T09:41:15.360Z,9.18
2023-01-02T09:43:45.585Z,9.23
2023-01-02T09:46:55.439Z,9.26
2023-01-02T09:49:23.513Z,9.30
2023-01-02T09:51:50.452Z,9.31
2023-01-02T09:54:37.422Z,9.34
2023-01-02T09:57:29.506Z,9.36
2023-01-02T10:00:26.143Z,9.39
2023-01-02T10:03:09.141Z,9.42
2023-01-02T10:05:40.782Z,9.44
2023-01-02T10:08:29.563Z,9.47
2023-01-02T10:11:19.099Z,9.48
2023-01-02T10:14:26.348Z,9.51
2023-01-02T10:16:55.387Z,9.52
2023-01-02T10:19:57.304Z,9.54
2023-01-02T10:22:30.182Z,9.56
2023-01-02T10:25:10.167Z,9.60
2023-01-02T10:27:40.943Z,9.64
2023-01-02T10:30:25.148Z,9.68
2023-01-02T10:33:10.208Z,9.72
2023-01-02T10:35:44.897Z,9.74
2023-01-02T10:38:12.952Z,9.77
2023-01-02T10:40:41.033Z,9.80
2023-01-02T10:43:08.704Z,9.84
2023-01-02T10:45:35.449Z,9.86
2023-01-02T10:48:02.082Z,9.91
2023-01-02T10:50:30.879Z,9.92
2023-01-02T10:53:19.843Z,9.95
2023-01-02T10:55:46.577Z,9.98
2023-01-02T10:58:26.486Z,9.99
2023-01-02T11:01:19.251Z,10.01
2023-01-02T11:03:47.153Z,10.03
2023-01-02T11:06:35.229Z,10.06
2023-01-02T11:09:17.208Z,10.08
2023-01-02T11:11:55.094Z,10.09
2023-01-02T11:14:32.208Z,10.12
2023-01-02T11:17:18.304Z,10.14
2023-01-02T11:19:46.565Z,10.16
2023-01-02T11:22:14.500Z,10.19
2023-01-02T11:25:00.008Z,10.20
2023-01-02T11:27:38.092Z,10.21
2023-01-02T11:30:05.877Z,10.22
2023-01-02T11:32:40.085Z,10.23
2023-01-02T11:35:32.375Z,10.24
2023-01-02T11:37:59.080Z,10.27
2023-01-02T11:40:28.125Z,10.30
2023-01-02T11:43:13.572Z,10.34
2023-01-02T11:45:41.142Z,10.38
2023-01-02T11:48:23.401Z,10.42
2023-01-02T11:50:50.127Z,10.45
2023-01-02T11:53:19.060Z,10.48
2023-01-02T11:55:51.830Z,10.50
2023-01-02T11:58:33.580Z,10.51
2023-01-02T12:01:08.845Z,10.53
2023-01-02T12:03:35.609Z,10.55
2023-01-02T12:06:08.361Z,10.56
2023-01-02T12:09:07.100Z,10.57
2023-01-02T12:11:52.567Z,10.58
2023-01-02T12:14:52.467Z,10.60
2023-01-02T12:17:58.452Z,10.62
2023-01-02T12:20:41.279Z,10.64
2023-01-02T12:23:15.230Z,10.64
2023-01-02T12:26:03.071Z,10.63
2023-01-02T12:28:34.056Z,10.63
2023-01-02T12:31:15.410Z,10.64
2023-01-02T12:34:07.638Z,10.65
2023-01-02T12:36:55.100Z,10.65
2023-01-02T12:39:50.026Z,10.67
2023-01-02T12:42:22.699Z,10.68
2023-01-02T12:44:58.610Z,10.70
2023-01-02T12:47:28.357Z,10.71
2023-01-02T12:50:25.620Z,10.73
2023-01-02T12:53:30.529Z,10.73
2023-01-02T12:56:04.839Z,10.73
2023-01-02T12:58:37.299Z,10.73
2023-01-02T13:01:29.125Z,10.73
2023-01-02T13:04:33.670Z,10.72
2023-01-02T13:07:09.503Z,10.71
2023-01-02T13:09:40.966Z,10.69
2023-01-02T13:12:14.458Z,10.66
2023-01-02T13:14:56.493Z,10.64
2023-01-02T13:17:35.903Z,10.62
2023-01-02T13:20:20.700Z,10.58
2023-01-02T13:22:55.167Z,10.55
2023-01-02T13:25:22.576Z,10.50
2023-01-02T13:27:49.383Z,10.45
2023-01-02T13:30:34.460Z,10.41
2023-01-02T13:33:02.420Z,10.35
2023-01-02T13:35:34.854Z,10.29
2023-01-02T13:38:03.328Z,10.22
2023-01-02T13:40:33.566Z,10.13
2023-01-02T13:43:03.514Z,10.03
2023-01-02T13:45:34.771Z,9.93
2023-01-02T13:48:07.152Z,9.82
2023-01-02T13:50:35.171Z,9.75
2023-01-02T13:53:11.168Z,9.67
2023-01-02T13:56:07.934Z,9.60
2023-01-02T13:58:50.974Z,9.53
2023-01-02T14:01:20.824Z,9.50
2023-01-02T14:04:09.647Z,9.47
2023-01-02T14:06:37.414Z,9.45
2023-01-02T14:09:04.117Z,9.40
2023-01-02T14:11:56.040Z,9.35
2023-01-02T14:14:20.660Z,9.29
2023-01-02T14:17:10.198Z,9.23
2023-01-02T14:19:36.822Z,9.18
2023-01-02T14:22:16.780Z,9.16
2023-01-02T14:24:51.097Z,9.13
2023-01-02T14:27:25.563Z,9.10
2023-01-02T14:29:55.015Z,9.03
2023-01-02T14:32:46.143Z,8.95
2023-01-02T14:35:12.813Z,8.87
2023-01-02T14:37:43.831Z,8.81
2023-01-02T14:40:22.711Z,8.74
2023-01-02T14:43:12.544Z,8.68
2023-01-02T14:45:53.473Z,8.60
2023-01-02T14:48:28.674Z,8.55
2023-01-02T14:50:57.341Z,8.51
2023-01-02T14:53:23.938Z,8.50
2023-01-02T14:55:53.083Z,8.49
2023-01-02T14:58:34.263Z,8.47
2023-01-02T15:01:04.719Z,8.44
2023-01-02T15:03:53.742Z,8.40
2023-01-02T15:06:49.394Z,8.35
2023-01-02T15:09:28.189Z,8.31
2023-01-02T15:12:14.762Z,8.27
2023-01-02T15:14:41.931Z,8.22
2023-01-02T15:17:10.950Z,8.19
2023-01-02T15:19:42.284Z,8.15
2023-01-02T15:22:13.595Z,8.13
2023-01-02T15:24:40.275Z,8.11
2023-01-02T15:27:29.335Z,8.06
2023-01-02T15:29:58.232Z,8.04
2023-01-02T15:32:34.161Z,8.02
2023-01-02T15:35:26.961Z,7.98
2023-01-02T15:37:53.673Z,7.92
2023-01-02T15:40:25.585Z,7.86
2023-01-02T15:43:11.477Z,7.80
2023-01-02T15:45:56.910Z,7.76
2023-01-02T15:48:26.317Z,7.73
2023-01-02T15:50:54.216Z,7.71
2023-01-02T15:53:25.572Z,7.70
2023-01-02T15:55:52.309Z,7.71
2023-01-02T15:58:18.943Z,7.70
2023-01-02T16:00:45.936Z,7.70
2023-01-02T16:04:02.639Z,7.70
2023-01-02T16:06:31.481Z,7.71
2023-01-02T16:08:59.329Z,7.70
2023-01-02T16:11:26.318Z,7.69
2023-01-02T16:14:20.524Z,7.68
2023-01-02T16:16:53.495Z,7.67
2023-01-02T16:20:01.707Z,7.65
2023-01-02T16:22:40.743Z,7.62
2023-01-02T16:25:11.840Z,7.59
2023-01-02T16:27:51.926Z,7.55
2023-01-02T16:32:47.842Z,7.47
2023-01-02T16:35:20.704Z,7.41
2023-01-02T16:37:53.799Z,7.37
2023-01-02T16:40:58.810Z,7.33
2023-01-02T16:43:11.355Z,7.28
2023-01-02T16:45:38.133Z,7.26
2023-01-02T16:48:05.300Z,7.21
2023-01-02T16:50:32.004Z,7.19
2023-01-02T16:53:08.065Z,7.16
2023-01-02T16:55:34.798Z,7.12
2023-01-02T16:58:01.499Z,7.07
2023-01-02T17:00:28.240Z,7.03
2023-01-02T17:02:55.051Z,7.00
2023-01-02T17:05:24.826Z,6.99
2023-01-02T17:07:51.509Z,6.97
2023-01-02T17:10:18.280Z,6.96
2023-01-02T17:12:44.901Z,6.94
2023-01-02T17:15:16.993Z,6.90
2023-01-02T17:17:43.696Z,6.85
2023-01-02T17:20:10.778Z,6.80
2023-01-02T17:22:37.636Z,6.74
2023-01-02T17:25:04.704Z,6.70
2023-01-02T17:27:31.567Z,6.68
2023-01-02T17:29:58.279Z,6.66
2023-01-02T17:32:26.093Z,6.67
2023-01-02T17:34:53.274Z,6.68
2023-01-02T17:37:21.879Z,6.70
2023-01-02T17:39:48.586Z,6.72
2023-01-02T17:42:15.304Z,6.74
2023-01-02T17:44:41.973Z,6.78
2023-01-02T17:47:58.408Z,6.81
2023-01-02T17:49:55.391Z,6.84
2023-01-02T17:52:22.174Z,6.87
2023-01-02T17:54:56.211Z,6.88
2023-01-02T17:57:23.546Z,6.92
2023-01-02T17:59:51.314Z,6.94
2023-01-02T18:02:19.075Z,6.96
2023-01-02T18:04:52.808Z,6.98
2023-01-02T18:07:23.583Z,7.00
2023-01-02T18:10:07.964Z,7.03
2023-01-02T18:12:38.298Z,7.09
2023-01-02T18:15:13.932Z,7.14
2023-01-02T18:17:40.742Z,7.19
2023-01-02T18:20:16.451Z,7.24
2023-01-02T18:22:48.914Z,7.28
2023-01-02T18:25:19.266Z,7.34
2023-01-02T18:27:46.548Z,7.39
2023-01-02T18:30:21.711Z,7.44
2023-01-02T18:32:49.344Z,7.48
2023-01-02T18:38:24.023Z,7.56
2023-01-02T18:40:53.151Z,7.59
2023-01-02T18:43:25.171Z,7.59
2023-01-02T18:45:54.689Z,7.59
2023-01-02T18:48:21.754Z,7.58
2023-01-02T18:51:29.753Z,7.54
2023-01-02T18:53:57.691Z,7.49
2023-01-02T18:56:29.827Z,7.44
2023-01-02T18:59:24.790Z,7.41
2023-01-02T19:01:52.128Z,7.38
2023-01-02T19:04:27.643Z,7.37
2023-01-02T19:07:01.418Z,7.37
2023-01-02T19:09:34.978Z,7.35
2023-01-02T19:12:46.931Z,7.36
2023-01-02T19:15:34.640Z,7.35
2023-01-02T19:18:17.767Z,7.33
2023-01-02T19:20:46.330Z,7.32
2023-01-02T19:23:30.805Z,7.30
2023-01-02T19:26:07.892Z,7.26
2023-01-02T19:28:35.656Z,7.23
2023-01-02T19:31:03.386Z,7.23
2023-01-02T19:33:43.317Z,7.21
2023-01-02T19:36:17.593Z,7.20
2023-01-02T19:38:45.093Z,7.20
2023-01-02T19:41:11.840Z,7.20
2023-01-02T19:43:38.988Z,7.20
2023-01-02T19:46:06.028Z,7.20
2023-01-02T19:48:34.566Z,7.19
2023-01-02T19:51:01.297Z,7.20
2023-01-02T19:53:28.059Z,7.19
2023-01-02T19:55:54.807Z,7.18
2023-01-02T19:58:21.770Z,7.13
2023-01-02T20:00:49.557Z,7.11
2023-01-02T20:03:16.602Z,7.06
2023-01-02T20:05:44.191Z,7.01
2023-01-02T20:08:10.870Z,6.97
2023-01-02T20:10:37.578Z,6.92
2023-01-02T20:13:04.631Z,6.87
2023-01-02T20:15:31.403Z,6.82
2023-01-02T20:17:59.717Z,6.78
2023-01-02T20:20:29.629Z,6.72
2023-01-02T20:22:56.404Z,6.67
2023-01-02T20:25:25.287Z,6.59
2023-01-02T20:27:53.428Z,6.54
2023-01-02T20:30:24.583Z,6.49
2023-01-02T20:32:52.613Z,6.46
2023-01-02T20:35:19.524Z,6.46
2023-01-02T20:37:46.723Z,6.46
2023-01-02T20:40:13.439Z,6.48
2023-01-02T20:42:40.281Z,6.50
2023-01-02T20:45:07.586Z,6.54
2023-01-02T20:47:36.409Z,6.58
2023-01-02T20:50:04.174Z,6.63
2023-01-02T20:52:30.923Z,6.67
2023-01-02T20:54:57.618Z,6.71
2023-01-02T20:57:24.349Z,6.75
2023-01-02T20:59:51.140Z,6.79
2023-01-02T21:02:18.079Z,6.82
2023-01-02T21:04:44.891Z,6.84
2023-01-02T21:07:11.516Z,6.87
2023-01-02T21:09:38.203Z,6.89
2023-01-02T21:12:24.916Z,6.89
2023-01-02T21:14:51.655Z,6.88
2023-01-02T21:17:18.305Z,6.85
2023-01-02T21:19:45.017Z,6.80
2023-01-02T21:22:11.706Z,6.77
2023-01-02T21:24:38.392Z,6.77
2023-01-02T21:27:12.615Z,6.77
2023-01-02T21:29:39.863Z,6.78
2023-01-02T21:32:06.573Z,6.77
2023-01-02T21:34:33.200Z,6.76
2023-01-02T21:37:00.119Z,6.73
2023-01-02T21:39:26.795Z,6.70
2023-01-02T21:42:12.176Z,6.69
2023-01-02T21:44:38.847Z,6.67
2023-01-02T21:47:05.543Z,6.66
2023-01-02T21:49:32.134Z,6.66
2023-01-02T21:52:00.193Z,6.67
2023-01-02T21:54:27.466Z,6.67
2023-01-02T21:56:54.209Z,6.69
2023-01-02T21:59:25.115Z,6.71
2023-01-02T22:01:52.878Z,6.73
2023-01-02T22:04:19.720Z,6.74
2023-01-02T22:07:21.310Z,6.75
2023-01-02T22:09:33.217Z,6.75
2023-01-02T22:11:59.949Z,6.74
2023-01-02T22:14:29.063Z,6.73
2023-01-02T22:17:00.909Z,6.72
2023-01-02T22:19:27.933Z,6.70
2023-01-02T22:21:54.986Z,6.68
2023-01-02T22:24:23.761Z,6.64
2023-01-02T22:26:51.240Z,6.60
2023-01-02T22:29:18.955Z,6.55
2023-01-02T22:31:45.628Z,6.51
2023-01-02T22:34:12.483Z,6.48
2023-01-02T22:36:39.255Z,6.44
2023-01-02T22:39:27.492Z,6.39
2023-01-02T22:42:41.355Z,6.36
2023-01-02T22:45:03.071Z,6.32
2023-01-02T22:47:30.845Z,6.28
2023-01-02T22:49:57.511Z,6.22
2023-01-02T22:52:24.318Z,6.15
2023-01-02T22:54:51.051Z,6.08
2023-01-02T22:57:17.783Z,6.01
2023-01-02T22:59:45.006Z,5.92
2023-01-02T23:02:14.461Z,5.84
2023-01-02T23:04:41.223Z,5.75
2023-01-02T23:07:23.804Z,5.65
2023-01-02T23:09:50.941Z,5.60
2023-01-02T23:12:17.579Z,5.53
2023-01-02T23:14:44.318Z,5.45
2023-01-02T23:17:30.345Z,5.35
2023-01-02T23:19:57.948Z,5.25
2023-01-02T23:22:24.747Z,5.17
2023-01-02T23:24:51.489Z,5.10
2023-01-02T23:27:18.346Z,5.04
2023-01-02T23:29:45.200Z,4.97
2023-01-02T23:32:12.704Z,4.91
2023-01-02T23:34:39.717Z,4.85
2023-01-02T23:37:06.529Z,4.79
2023-01-02T23:39:33.487Z,4.73
2023-01-02T23:42:00.227Z,4.68
2023-01-02T23:44:27.000Z,4.62
2023-01-02T23:46:53.896Z,4.57
2023-01-02T23:49:20.573Z,4.51
2023-01-02T23:51:47.268Z,4.48
2023-01-02T23:54:15.178Z,4.44
2023-01-02T23:56:43.391Z,4.43
2023-01-02T23:59:13.095Z,4.44
